Time;durP1;ratioP1;P1;durP2;ratioP2;P2;SDS_P1;SDS_P2;PMS_P1;PMS_P2;Temp;Humidity;BMP_temperature;BMP_pressure;BME280_temperature;BME280_humidity;BME280_pressure;Samples;Min_cycle;Max_cycle;Signal;HPM_P1;HPM_P2
2022/10/18 00:00:05;;;;;;;46.13;24.75;;;14.50;99.90;;;;;;5037084;28;20381;-74
2022/10/18 00:02:31;;;;;;;55.97;27.30;;;14.50;99.90;;;;;;5019149;28;20041;-75
2022/10/18 00:04:56;;;;;;;49.05;28.05;;;14.50;99.90;;;;;;5036685;28;20125;-75
2022/10/18 00:07:22;;;;;;;53.10;27.05;;;14.50;99.90;;;;;;5027083;28;20033;-74
2022/10/18 00:09:48;;;;;;;56.28;27.75;;;14.50;99.90;;;;;;5036963;28;20033;-75
2022/10/18 00:12:13;;;;;;;56.25;27.38;;;14.50;99.90;;;;;;5019746;28;20108;-73
2022/10/18 00:14:39;;;;;;;56.75;30.10;;;14.50;99.90;;;;;;5036501;28;20414;-73
2022/10/18 00:17:04;;;;;;;60.42;30.02;;;14.40;99.90;;;;;;5036501;28;20033;-74
2022/10/18 00:19:30;;;;;;;51.75;29.00;;;14.40;99.90;;;;;;5036447;28;20021;-74
2022/10/18 00:21:56;;;;;;;59.40;29.20;;;14.40;99.90;;;;;;5025824;28;20057;-74
2022/10/18 00:24:22;;;;;;;56.10;30.33;;;14.40;99.90;;;;;;5024886;28;20140;-74
2022/10/18 00:26:47;;;;;;;55.33;29.38;;;14.40;99.90;;;;;;5033092;28;20080;-73
2022/10/18 00:29:15;;;;;;;57.22;29.42;;;14.40;99.90;;;;;;5015362;28;20104;-74
2022/10/18 00:31:41;;;;;;;50.85;30.20;;;14.40;99.90;;;;;;5033424;28;20026;-73
2022/10/18 00:34:11;;;;;;;60.58;29.50;;;14.40;99.90;;;;;;5033460;28;20021;-73
2022/10/18 00:36:37;;;;;;;62.20;29.40;;;14.40;99.90;;;;;;5032354;28;20026;-74
2022/10/18 00:39:04;;;;;;;58.85;30.60;;;14.40;99.90;;;;;;5031958;28;20394;-72
2022/10/18 00:41:32;;;;;;;51.53;29.13;;;14.40;99.90;;;;;;5033530;28;20066;-74
2022/10/18 00:44:02;;;;;;;55.35;30.55;;;14.40;99.90;;;;;;5033397;28;20029;-73
2022/10/18 00:46:34;;;;;;;56.10;30.42;;;14.40;99.90;;;;;;5032976;28;20034;-73
2022/10/18 00:49:08;;;;;;;62.53;31.80;;;14.40;99.90;;;;;;5032680;28;20041;-72
2022/10/18 00:51:57;;;;;;;58.47;31.15;;;14.40;99.90;;;;;;5033315;28;20093;-72
2022/10/18 00:54:23;;;;;;;64.57;31.55;;;14.40;99.90;;;;;;5022153;28;20386;-74
2022/10/18 00:56:52;;;;;;;59.25;29.90;;;14.40;99.90;;;;;;5032658;28;20053;-74
2022/10/18 00:59:19;;;;;;;67.32;31.25;;;14.40;99.90;;;;;;5006363;28;20120;-73
2022/10/18 01:01:45;;;;;;;63.53;32.58;;;14.40;99.90;;;;;;5032586;28;20022;-72
2022/10/18 01:04:13;;;;;;;61.35;33.03;;;14.40;99.90;;;;;;5021437;28;20049;-72
2022/10/18 01:06:59;;;;;;;60.60;31.42;;;14.30;99.90;;;;;;5031962;28;20059;-72
2022/10/18 01:09:24;;;;;;;62.47;32.80;;;14.30;99.90;;;;;;5014742;28;20076;-74
2022/10/18 01:12:17;;;;;;;71.75;32.55;;;14.30;99.90;;;;;;5032847;28;20112;-75
2022/10/18 01:15:09;;;;;;;64.57;33.33;;;14.30;99.90;;;;;;5032107;28;20048;-73
2022/10/18 01:18:00;;;;;;;58.80;33.13;;;14.30;99.90;;;;;;5032612;28;20026;-72
2022/10/18 01:20:32;;;;;;;66.88;33.15;;;14.30;99.90;;;;;;5031948;28;20132;-74
2022/10/18 01:23:06;;;;;;;63.97;32.75;;;14.30;99.90;;;;;;5022439;28;20021;-73
2022/10/18 01:26:02;;;;;;;69.10;34.20;;;14.20;99.90;;;;;;5032191;28;20516;-74
2022/10/18 01:28:46;;;;;;;68.95;33.83;;;14.30;99.90;;;;;;5017576;28;20038;-73
2022/10/18 01:31:20;;;;;;;69.03;32.88;;;14.20;99.90;;;;;;5031922;28;20029;-73
2022/10/18 01:33:55;;;;;;;68.65;32.75;;;14.20;99.90;;;;;;5031778;28;20089;-73
2022/10/18 01:36:36;;;;;;;69.13;33.85;;;14.20;99.90;;;;;;5031491;28;20026;-73
2022/10/18 01:39:07;;;;;;;64.85;32.72;;;14.20;99.90;;;;;;5031056;28;20044;-75
2022/10/18 01:41:36;;;;;;;66.03;33.45;;;14.20;99.90;;;;;;5031304;28;20040;-74
2022/10/18 01:44:04;;;;;;;62.17;34.33;;;14.20;99.90;;;;;;5033708;28;20045;-73
2022/10/18 01:46:32;;;;;;;74.25;33.90;;;14.20;99.90;;;;;;5031863;28;20033;-70
2022/10/18 01:48:58;;;;;;;59.50;32.47;;;14.20;99.90;;;;;;5031002;28;20018;-72
2022/10/18 01:51:29;;;;;;;67.05;34.13;;;14.20;99.90;;;;;;5032222;28;20053;-73
2022/10/18 01:53:55;;;;;;;62.55;32.20;;;14.20;99.90;;;;;;5021422;28;20316;-74
2022/10/18 01:56:55;;;;;;;70.90;32.10;;;14.10;99.90;;;;;;5030891;28;20034;-73
2022/10/18 01:59:27;;;;;;;68.53;30.88;;;14.10;99.90;;;;;;5032130;28;20026;-73
2022/10/18 02:02:30;;;;;;;64.32;30.10;;;14.00;99.90;;;;;;5020393;28;20026;-73
2022/10/18 02:05:08;;;;;;;51.13;29.08;;;14.00;99.90;;;;;;4998956;28;20513;-73
2022/10/18 02:07:52;;;;;;;54.45;29.10;;;14.00;99.90;;;;;;5032281;28;20084;-73
2022/10/18 02:10:28;;;;;;;61.10;31.23;;;14.00;99.90;;;;;;5030967;28;20034;-73
2022/10/18 02:12:55;;;;;;;55.70;29.33;;;13.90;99.90;;;;;;5005383;28;20034;-73
2022/10/18 02:15:26;;;;;;;52.13;28.65;;;13.90;99.90;;;;;;5030644;28;20018;-74
2022/10/18 02:17:53;;;;;;;57.38;29.15;;;13.90;99.90;;;;;;5013987;28;20093;-72
2022/10/18 02:20:21;;;;;;;57.17;29.02;;;13.90;99.90;;;;;;5031686;28;20602;-72
2022/10/18 02:22:49;;;;;;;53.42;29.48;;;13.80;99.90;;;;;;5030986;28;20678;-73
2022/10/18 02:25:22;;;;;;;56.00;30.42;;;13.80;99.90;;;;;;5031006;28;20042;-73
2022/10/18 02:27:48;;;;;;;67.72;31.73;;;13.80;99.90;;;;;;5031388;28;20034;-73
2022/10/18 02:30:15;;;;;;;54.17;29.05;;;13.80;99.90;;;;;;5031314;28;20028;-74
2022/10/18 02:32:47;;;;;;;65.50;32.03;;;13.80;99.90;;;;;;5030934;28;20032;-73
2022/10/18 02:35:37;;;;;;;79.35;32.03;;;13.80;99.90;;;;;;5030456;28;20050;-72
2022/10/18 02:38:06;;;;;;;67.22;30.92;;;13.80;99.90;;;;;;5030317;28;20513;-72
2022/10/18 02:40:32;;;;;;;65.22;31.75;;;13.90;99.90;;;;;;5031943;28;20057;-73
2022/10/18 02:42:58;;;;;;;78.93;34.03;;;13.80;99.90;;;;;;5030944;28;20092;-72
2022/10/18 02:45:24;;;;;;;124.93;36.45;;;13.90;99.90;;;;;;5031003;28;20037;-73
2022/10/18 02:47:50;;;;;;;136.60;36.28;;;13.90;99.90;;;;;;5031350;28;20057;-73
2022/10/18 02:50:17;;;;;;;74.72;37.10;;;14.00;99.90;;;;;;5030126;28;20025;-73
2022/10/18 02:52:42;;;;;;;68.60;34.60;;;13.90;99.90;;;;;;5030159;28;20030;-73
2022/10/18 02:55:08;;;;;;;123.90;36.08;;;14.00;99.90;;;;;;5030520;28;20041;-75
2022/10/18 02:57:35;;;;;;;193.30;36.25;;;14.00;99.90;;;;;;5030035;28;20044;-75
2022/10/18 03:00:01;;;;;;;77.10;36.00;;;14.00;99.90;;;;;;5032208;28;20025;-73
2022/10/18 03:02:27;;;;;;;134.57;35.45;;;14.00;99.90;;;;;;5030880;28;20064;-71
2022/10/18 03:04:53;;;;;;;191.15;37.15;;;14.00;99.90;;;;;;5030035;28;20037;-73
2022/10/18 03:07:19;;;;;;;96.65;36.80;;;14.10;99.90;;;;;;5030452;28;20033;-72
2022/10/18 03:09:45;;;;;;;122.70;35.75;;;14.00;99.90;;;;;;5030493;28;20097;-72
2022/10/18 03:12:10;;;;;;;105.43;35.60;;;14.00;99.90;;;;;;5030430;28;20029;-73
2022/10/18 03:14:36;;;;;;;119.78;35.35;;;14.00;99.90;;;;;;5030710;28;20066;-72
2022/10/18 03:17:02;;;;;;;106.60;34.05;;;14.00;99.90;;;;;;5031480;28;20092;-72
2022/10/18 03:19:27;;;;;;;74.20;35.70;;;13.90;99.90;;;;;;5030556;28;20034;-71
2022/10/18 03:21:53;;;;;;;77.25;35.03;;;13.90;99.90;;;;;;5030761;28;20061;-72
2022/10/18 03:24:19;;;;;;;123.13;35.50;;;13.90;99.90;;;;;;5028161;28;20037;-72
2022/10/18 03:26:44;;;;;;;74.07;33.53;;;13.90;99.90;;;;;;5030187;28;20076;-73
2022/10/18 03:29:10;;;;;;;78.57;32.30;;;13.90;99.90;;;;;;5030980;28;20041;-73
2022/10/18 03:31:36;;;;;;;68.35;33.38;;;13.90;99.90;;;;;;5030649;28;20028;-73
2022/10/18 03:34:01;;;;;;;89.20;32.67;;;13.90;99.90;;;;;;5030080;28;20117;-74
2022/10/18 03:36:27;;;;;;;67.75;32.00;;;13.90;99.90;;;;;;5030834;28;20029;-73
2022/10/18 03:38:53;;;;;;;87.65;31.00;;;13.90;99.90;;;;;;5030228;28;20053;-74
2022/10/18 03:41:19;;;;;;;99.03;32.15;;;13.90;99.90;;;;;;5030271;28;20033;-72
2022/10/18 03:43:46;;;;;;;71.75;29.20;;;13.90;99.90;;;;;;5030144;28;20596;-74
2022/10/18 03:46:11;;;;;;;67.60;31.08;;;13.80;99.90;;;;;;5030400;28;20044;-71
2022/10/18 03:48:37;;;;;;;81.65;31.75;;;13.90;99.90;;;;;;5030399;28;20101;-74
2022/10/18 03:51:03;;;;;;;96.07;34.00;;;13.90;99.90;;;;;;5030450;28;20044;-74
2022/10/18 03:53:29;;;;;;;103.00;31.25;;;13.90;99.90;;;;;;5030088;28;20389;-73
2022/10/18 03:55:59;;;;;;;75.75;29.92;;;13.90;99.90;;;;;;5030790;28;20037;-72
2022/10/18 03:58:24;;;;;;;82.13;31.00;;;13.90;99.90;;;;;;5028860;28;20021;-72
2022/10/18 04:00:51;;;;;;;88.97;32.17;;;13.90;99.90;;;;;;5031827;28;20520;-71
2022/10/18 04:03:18;;;;;;;76.50;30.58;;;13.80;99.90;;;;;;5014904;28;20018;-70
2022/10/18 04:05:45;;;;;;;71.55;29.92;;;13.80;99.90;;;;;;5034094;28;20059;-72
2022/10/18 04:08:11;;;;;;;84.57;30.92;;;13.80;99.90;;;;;;5033558;28;20034;-72
2022/10/18 04:10:37;;;;;;;77.65;32.30;;;13.80;99.90;;;;;;5029347;28;20072;-73
2022/10/18 04:13:04;;;;;;;55.85;31.02;;;13.80;99.90;;;;;;5035505;28;20445;-72
2022/10/18 04:15:29;;;;;;;67.95;32.33;;;13.80;99.90;;;;;;5034052;28;20044;-72
2022/10/18 04:17:55;;;;;;;70.05;32.22;;;13.80;99.90;;;;;;5015681;28;20022;-73
2022/10/18 04:20:22;;;;;;;76.00;33.58;;;13.80;99.90;;;;;;5033423;28;20018;-73
2022/10/18 04:22:48;;;;;;;74.75;32.28;;;13.80;99.90;;;;;;5033550;28;20034;-73
2022/10/18 04:25:14;;;;;;;67.40;31.65;;;13.80;99.90;;;;;;5034668;28;20041;-74
2022/10/18 04:27:40;;;;;;;86.07;32.38;;;13.80;99.90;;;;;;5033743;28;20032;-74
2022/10/18 04:30:06;;;;;;;83.90;32.60;;;13.80;99.90;;;;;;5033933;28;20052;-73
2022/10/18 04:32:33;;;;;;;107.95;31.65;;;13.70;99.90;;;;;;5033291;28;20030;-73
2022/10/18 04:35:00;;;;;;;87.25;32.75;;;13.80;99.90;;;;;;5033039;28;20826;-74
2022/10/18 04:37:25;;;;;;;85.55;32.95;;;13.80;99.90;;;;;;5033062;28;20052;-72
2022/10/18 04:39:51;;;;;;;89.53;33.05;;;13.80;99.90;;;;;;5033481;28;20026;-72
2022/10/18 04:42:16;;;;;;;60.63;29.23;;;13.80;99.90;;;;;;5033103;28;20018;-73
2022/10/18 04:44:42;;;;;;;85.60;32.50;;;13.80;99.90;;;;;;5033467;28;20481;-72
2022/10/18 04:47:07;;;;;;;75.43;31.02;;;13.80;99.90;;;;;;5033148;28;20057;-74
2022/10/18 04:49:33;;;;;;;71.63;31.17;;;13.80;99.90;;;;;;5033176;28;20038;-71
2022/10/18 04:51:59;;;;;;;82.20;32.22;;;13.80;99.90;;;;;;5022679;28;20029;-73
2022/10/18 04:54:24;;;;;;;88.15;32.33;;;13.80;99.90;;;;;;5033348;28;20033;-73
2022/10/18 04:56:50;;;;;;;82.90;32.30;;;13.80;99.90;;;;;;5032588;28;20064;-72
2022/10/18 04:59:16;;;;;;;76.45;32.20;;;13.80;99.90;;;;;;5029324;28;20018;-74
2022/10/18 05:01:41;;;;;;;79.85;33.47;;;13.80;99.90;;;;;;5015248;28;20025;-72
2022/10/18 05:04:08;;;;;;;81.50;32.55;;;13.80;99.90;;;;;;5030885;28;20033;-72
2022/10/18 05:06:33;;;;;;;89.72;30.55;;;13.90;99.90;;;;;;5014973;28;20066;-74
2022/10/18 05:09:00;;;;;;;67.00;27.90;;;13.90;99.90;;;;;;5033314;28;20030;-74
2022/10/18 05:11:26;;;;;;;61.33;26.83;;;13.80;99.90;;;;;;5032569;28;20078;-73
2022/10/18 05:13:51;;;;;;;63.40;27.52;;;13.80;99.90;;;;;;5030267;28;20076;-73
2022/10/18 05:16:17;;;;;;;57.67;24.80;;;13.80;99.90;;;;;;5032952;28;20018;-74
2022/10/18 05:18:43;;;;;;;63.88;25.23;;;13.80;99.90;;;;;;5031899;28;20052;-75
2022/10/18 05:21:09;;;;;;;60.83;26.05;;;13.80;99.90;;;;;;5032774;28;20065;-72
2022/10/18 05:23:34;;;;;;;60.25;27.35;;;13.80;99.90;;;;;;5016779;28;20047;-73
2022/10/18 05:26:05;;;;;;;59.25;25.38;;;13.80;99.90;;;;;;5032705;28;20081;-74
2022/10/18 05:28:32;;;;;;;57.78;25.27;;;13.80;99.90;;;;;;5032783;28;20414;-75
2022/10/18 05:31:03;;;;;;;54.25;24.90;;;13.80;99.90;;;;;;5032842;28;20029;-75
2022/10/18 05:33:29;;;;;;;61.00;26.58;;;13.80;99.90;;;;;;5033639;28;20091;-75
2022/10/18 05:35:54;;;;;;;59.60;25.17;;;13.70;99.90;;;;;;5033617;28;20164;-74
2022/10/18 05:38:20;;;;;;;51.90;25.77;;;13.70;99.90;;;;;;5012559;28;20081;-74
2022/10/18 05:40:46;;;;;;;53.47;24.15;;;13.70;99.90;;;;;;5031764;28;20096;-74
2022/10/18 05:43:11;;;;;;;67.88;25.02;;;13.70;99.90;;;;;;5031963;28;20032;-76
2022/10/18 05:45:37;;;;;;;53.17;24.42;;;13.70;99.90;;;;;;5032121;28;20064;-74
2022/10/18 05:48:04;;;;;;;54.05;25.65;;;13.70;99.90;;;;;;5033162;28;20042;-73
2022/10/18 05:50:30;;;;;;;61.92;25.98;;;13.70;99.90;;;;;;5028970;28;20085;-76
2022/10/18 05:52:56;;;;;;;58.08;24.00;;;13.70;99.90;;;;;;5032065;28;20049;-73
2022/10/18 05:55:25;;;;;;;55.72;23.65;;;13.70;99.90;;;;;;5021119;28;20040;-76
2022/10/18 05:57:51;;;;;;;52.92;24.10;;;13.80;99.90;;;;;;5030093;28;20026;-76
2022/10/18 06:00:17;;;;;;;59.78;26.15;;;13.70;99.90;;;;;;5030793;28;20027;-73
2022/10/18 06:02:43;;;;;;;58.25;24.38;;;13.70;99.90;;;;;;5030234;28;20034;-75
2022/10/18 06:05:09;;;;;;;50.28;23.48;;;13.70;99.90;;;;;;5025555;28;20034;-75
2022/10/18 06:07:34;;;;;;;63.83;25.17;;;13.70;99.90;;;;;;5032307;28;20034;-73
2022/10/18 06:10:00;;;;;;;65.10;25.95;;;13.80;99.90;;;;;;5029552;28;20034;-74
2022/10/18 06:12:26;;;;;;;56.03;24.13;;;13.70;99.90;;;;;;5031935;28;20033;-75
2022/10/18 06:14:51;;;;;;;64.25;26.00;;;13.70;99.90;;;;;;5013707;28;20056;-76
2022/10/18 06:17:17;;;;;;;55.60;23.13;;;13.70;99.90;;;;;;5031717;28;20037;-74
2022/10/18 06:19:43;;;;;;;49.30;22.95;;;13.70;99.90;;;;;;5033237;28;20038;-75
2022/10/18 06:22:09;;;;;;;55.10;21.67;;;13.70;99.90;;;;;;5031264;28;20053;-75
2022/10/18 06:24:35;;;;;;;55.03;21.95;;;13.70;99.90;;;;;;5031006;28;20038;-74
2022/10/18 06:27:07;;;;;;;46.17;20.92;;;13.70;99.90;;;;;;5031453;28;20085;-74
2022/10/18 06:29:34;;;;;;;45.20;21.10;;;13.60;99.90;;;;;;5027818;28;20110;-73
2022/10/18 06:31:59;;;;;;;54.28;21.15;;;13.60;99.90;;;;;;5032458;28;20021;-75
2022/10/18 06:34:25;;;;;;;48.72;21.63;;;13.60;99.90;;;;;;5028319;28;20538;-73
2022/10/18 06:36:51;;;;;;;46.47;20.80;;;13.60;99.90;;;;;;5032580;28;20055;-75
2022/10/18 06:39:16;;;;;;;54.85;21.77;;;13.60;99.90;;;;;;5028897;28;20081;-74
2022/10/18 06:41:42;;;;;;;50.05;21.60;;;13.60;99.90;;;;;;5026701;28;20026;-74
2022/10/18 06:44:12;;;;;;;60.92;21.38;;;13.60;99.90;;;;;;5031787;28;20041;-73
2022/10/18 06:46:42;;;;;;;42.13;18.70;;;13.50;99.90;;;;;;5014551;28;20085;-75
2022/10/18 06:49:09;;;;;;;50.72;21.08;;;13.60;99.90;;;;;;5033503;28;20122;-75
2022/10/18 06:51:35;;;;;;;46.03;20.90;;;13.50;99.90;;;;;;5032214;28;20125;-73
2022/10/18 06:54:01;;;;;;;48.63;19.35;;;13.50;99.90;;;;;;5032804;28;20026;-74
2022/10/18 06:56:27;;;;;;;42.47;17.00;;;13.50;99.90;;;;;;5030164;28;20029;-75
2022/10/18 06:58:52;;;;;;;35.85;18.08;;;13.50;99.90;;;;;;5031927;28;20032;-73
2022/10/18 07:01:19;;;;;;;51.20;20.02;;;13.50;99.90;;;;;;5033447;28;20078;-73
2022/10/18 07:03:47;;;;;;;42.53;18.90;;;13.40;99.90;;;;;;5030946;28;20045;-75
2022/10/18 07:06:15;;;;;;;45.00;18.77;;;13.40;99.90;;;;;;5033062;28;20030;-74
2022/10/18 07:08:41;;;;;;;38.90;17.00;;;13.40;99.90;;;;;;5016754;28;20022;-75
2022/10/18 07:11:12;;;;;;;43.92;18.92;;;13.40;99.90;;;;;;5030341;28;20034;-75
2022/10/18 07:13:38;;;;;;;38.92;18.52;;;13.40;99.90;;;;;;5030773;28;20052;-72
2022/10/18 07:16:11;;;;;;;46.50;19.88;;;13.40;99.90;;;;;;5033006;28;20034;-76
2022/10/18 07:18:43;;;;;;;45.97;18.23;;;13.40;99.90;;;;;;5031319;28;20043;-74
2022/10/18 07:21:11;;;;;;;38.30;18.17;;;13.40;99.90;;;;;;5032862;28;20060;-73
2022/10/18 07:23:42;;;;;;;36.83;18.60;;;13.40;99.90;;;;;;5031352;28;20109;-73
2022/10/18 07:26:30;;;;;;;42.05;18.55;;;13.40;99.90;;;;;;5031128;28;20068;-74
2022/10/18 07:28:59;;;;;;;41.03;17.75;;;13.40;99.90;;;;;;5030671;28;20033;-75
2022/10/18 07:31:24;;;;;;;41.20;18.40;;;13.40;99.90;;;;;;5031429;28;20038;-74
2022/10/18 07:33:51;;;;;;;46.97;20.00;;;13.50;99.90;;;;;;5015172;28;20047;-74
2022/10/18 07:36:18;;;;;;;46.10;19.10;;;13.50;99.90;;;;;;5032726;28;20049;-75
2022/10/18 07:38:43;;;;;;;46.22;19.13;;;13.50;99.90;;;;;;5035609;28;20045;-73
2022/10/18 07:41:11;;;;;;;45.95;20.08;;;13.50;99.90;;;;;;5036634;28;20045;-76
2022/10/18 07:43:41;;;;;;;45.70;20.02;;;13.40;99.90;;;;;;5034719;28;20037;-74
2022/10/18 07:46:07;;;;;;;46.90;18.75;;;13.40;99.90;;;;;;5017468;28;20668;-73
2022/10/18 07:48:33;;;;;;;42.33;18.55;;;13.40;99.90;;;;;;5034055;28;20493;-76
2022/10/18 07:51:00;;;;;;;59.05;18.35;;;13.40;99.90;;;;;;5037619;28;20053;-72
2022/10/18 07:53:26;;;;;;;43.45;17.92;;;13.40;99.90;;;;;;5015350;28;20042;-75
2022/10/18 07:55:57;;;;;;;43.33;18.52;;;13.40;99.90;;;;;;5034241;28;20032;-76
2022/10/18 07:58:22;;;;;;;43.85;18.50;;;13.30;99.90;;;;;;5034808;28;20033;-75
2022/10/18 08:00:48;;;;;;;44.28;18.92;;;13.30;99.90;;;;;;5031537;28;20064;-74
2022/10/18 08:03:14;;;;;;;49.55;20.50;;;13.30;99.90;;;;;;5034311;28;20025;-74
2022/10/18 08:05:39;;;;;;;42.13;18.60;;;13.30;99.90;;;;;;5033037;28;20052;-74
2022/10/18 08:08:05;;;;;;;40.05;17.42;;;13.30;99.90;;;;;;5033888;28;20033;-73
2022/10/18 08:10:31;;;;;;;42.83;19.42;;;13.30;99.90;;;;;;5033065;28;20064;-76
2022/10/18 08:12:56;;;;;;;37.38;17.58;;;13.30;99.90;;;;;;5034278;28;20104;-74
2022/10/18 08:15:24;;;;;;;38.38;17.33;;;13.30;99.90;;;;;;5034228;28;20018;-75
2022/10/18 08:17:50;;;;;;;41.58;18.33;;;13.30;99.90;;;;;;5033670;28;20033;-74
2022/10/18 08:20:16;;;;;;;45.28;19.58;;;13.30;99.90;;;;;;5037302;28;20025;-74
2022/10/18 08:22:41;;;;;;;42.30;19.17;;;13.30;99.90;;;;;;5034209;28;20022;-74
2022/10/18 08:25:07;;;;;;;46.00;18.55;;;13.40;99.90;;;;;;5036863;28;20049;-73
2022/10/18 08:27:33;;;;;;;48.58;20.70;;;13.40;99.90;;;;;;5037156;28;20036;-75
2022/10/18 08:30:00;;;;;;;50.97;22.15;;;13.50;99.90;;;;;;5016818;28;20075;-73
2022/10/18 08:32:27;;;;;;;58.95;23.95;;;13.50;99.90;;;;;;5018486;28;20025;-74
2022/10/18 08:34:53;;;;;;;52.35;24.02;;;13.60;99.90;;;;;;5034079;28;20330;-73
2022/10/18 08:37:18;;;;;;;65.60;25.00;;;13.60;99.90;;;;;;5031601;28;20158;-72
2022/10/18 08:39:44;;;;;;;65.15;28.00;;;13.70;99.90;;;;;;5031121;28;20029;-73
2022/10/18 08:42:42;;;;;;;68.22;29.95;;;13.70;99.90;;;;;;5032709;28;20049;-73
2022/10/18 08:45:10;;;;;;;81.63;32.45;;;13.80;99.90;;;;;;4972971;28;20054;-73
2022/10/18 08:47:42;;;;;;;74.20;32.90;;;14.00;99.90;;;;;;5033518;28;20016;-74
2022/10/18 08:50:23;;;;;;;78.88;33.63;;;14.10;99.90;;;;;;5035572;28;20033;-72
2022/10/18 08:53:04;;;;;;;70.22;31.60;;;14.10;99.90;;;;;;5032844;28;20033;-74
2022/10/18 08:55:43;;;;;;;79.43;35.00;;;14.20;99.90;;;;;;5033713;28;20393;-74
2022/10/18 08:58:23;;;;;;;80.90;36.33;;;14.20;99.90;;;;;;5035383;28;20021;-74
2022/10/18 09:00:57;;;;;;;81.32;35.28;;;14.10;99.90;;;;;;5017783;28;20120;-74
2022/10/18 09:03:49;;;;;;;60.30;26.92;;;14.10;99.90;;;;;;5033811;28;20036;-73
2022/10/18 09:06:18;;;;;;;50.72;22.70;;;14.10;99.90;;;;;;5033630;28;20026;-73
2022/10/18 09:09:14;;;;;;;42.88;18.75;;;14.20;99.90;;;;;;5019188;28;20026;-73
2022/10/18 09:11:53;;;;;;;56.70;21.17;;;14.40;99.90;;;;;;5032126;28;20037;-73
2022/10/18 09:14:41;;;;;;;38.45;16.95;;;14.40;99.90;;;;;;5032677;28;20837;-73
2022/10/18 09:17:35;;;;;;;39.67;17.98;;;14.40;99.90;;;;;;5033765;28;20045;-73
2022/10/18 09:20:08;;;;;;;36.78;15.18;;;14.40;99.90;;;;;;5023989;28;20405;-75
2022/10/18 09:22:42;;;;;;;38.17;16.60;;;14.30;99.90;;;;;;5014730;28;20034;-73
2022/10/18 09:25:18;;;;;;;36.22;16.42;;;14.40;99.90;;;;;;5031849;28;20045;-75
2022/10/18 09:27:51;;;;;;;35.00;16.05;;;14.50;99.90;;;;;;5032119;28;20038;-74
2022/10/18 09:30:53;;;;;;;30.08;15.10;;;14.60;99.90;;;;;;5031574;28;20080;-74
2022/10/18 09:33:44;;;;;;;34.22;16.20;;;14.80;99.90;;;;;;5029387;28;20040;-73
2022/10/18 09:36:20;;;;;;;37.17;16.67;;;14.90;99.90;;;;;;5033451;28;20025;-73
2022/10/18 09:38:52;;;;;;;29.50;15.23;;;15.10;99.90;;;;;;5031993;28;20042;-73
2022/10/18 09:41:50;;;;;;;28.42;14.07;;;15.20;99.90;;;;;;5032405;28;20018;-74
2022/10/18 09:44:26;;;;;;;27.48;13.88;;;15.30;99.90;;;;;;5025774;28;20506;-74
2022/10/18 09:47:04;;;;;;;36.35;14.38;;;15.50;99.90;;;;;;5031589;28;20042;-73
2022/10/18 09:49:40;;;;;;;32.30;13.25;;;15.50;99.90;;;;;;5031428;28;20025;-76
2022/10/18 09:52:12;;;;;;;32.58;13.75;;;15.50;99.90;;;;;;5011846;28;20765;-74
2022/10/18 09:54:53;;;;;;;30.63;14.80;;;15.50;99.90;;;;;;5013613;28;20029;-74
2022/10/18 09:57:36;;;;;;;29.48;14.23;;;15.50;99.90;;;;;;5033189;28;20025;-75
2022/10/18 10:00:12;;;;;;;24.83;12.60;;;15.60;99.90;;;;;;5032479;28;20056;-75
2022/10/18 10:02:38;;;;;;;29.00;14.23;;;15.60;99.90;;;;;;5032286;28;20037;-75
2022/10/18 10:05:08;;;;;;;25.02;12.93;;;15.70;99.90;;;;;;5013821;28;20042;-74
2022/10/18 10:07:41;;;;;;;32.13;16.13;;;15.70;99.90;;;;;;5031568;28;20014;-75
2022/10/18 10:10:24;;;;;;;36.83;17.50;;;15.60;99.90;;;;;;5031774;28;20010;-72
2022/10/18 10:13:26;;;;;;;35.10;16.88;;;15.50;99.90;;;;;;5032776;28;20119;-74
2022/10/18 10:16:02;;;;;;;30.17;15.25;;;15.40;99.90;;;;;;4964819;28;20178;-75
2022/10/18 10:18:30;;;;;;;29.60;15.15;;;15.40;99.90;;;;;;5025359;28;21300;-74
2022/10/18 10:21:01;;;;;;;24.17;12.95;;;15.40;99.90;;;;;;5021484;28;20030;-74
2022/10/18 10:23:35;;;;;;;29.23;13.13;;;15.40;99.90;;;;;;5028830;28;20026;-73
2022/10/18 10:26:20;;;;;;;28.58;13.45;;;15.50;99.90;;;;;;5031357;28;20026;-76
2022/10/18 10:28:47;;;;;;;26.52;13.25;;;15.70;99.90;;;;;;5030196;28;20018;-73
2022/10/18 10:31:32;;;;;;;27.80;12.75;;;15.90;99.90;;;;;;5030153;28;20037;-75
2022/10/18 10:34:01;;;;;;;25.48;13.00;;;16.20;99.90;;;;;;5031635;28;20685;-75
2022/10/18 10:36:27;;;;;;;24.25;11.35;;;16.40;99.90;;;;;;5024471;28;20052;-74
2022/10/18 10:39:04;;;;;;;21.73;11.75;;;16.40;99.90;;;;;;5033430;28;20136;-77
2022/10/18 10:41:30;;;;;;;25.60;11.23;;;16.30;99.90;;;;;;5014232;28;20422;-76
2022/10/18 10:43:56;;;;;;;21.95;10.45;;;16.40;99.90;;;;;;5027131;28;21138;-76
2022/10/18 10:46:25;;;;;;;23.67;10.57;;;16.30;99.90;;;;;;5031754;28;20429;-76
2022/10/18 10:48:56;;;;;;;30.60;11.48;;;16.20;99.90;;;;;;5033428;28;20033;-75
2022/10/18 10:51:35;;;;;;;28.33;11.48;;;16.30;99.90;;;;;;5031727;28;20021;-72
2022/10/18 10:54:16;;;;;;;25.15;10.77;;;16.30;99.90;;;;;;5017627;28;20087;-77
2022/10/18 10:57:11;;;;;;;28.52;10.07;;;16.40;99.90;;;;;;5029025;28;20092;-74
2022/10/18 10:59:44;;;;;;;30.48;10.57;;;16.50;99.90;;;;;;5011250;28;20036;-77
2022/10/18 11:02:12;;;;;;;23.38;9.32;;;16.50;99.90;;;;;;5029514;28;20033;-75
2022/10/18 11:04:40;;;;;;;19.70;8.02;;;16.40;99.90;;;;;;5030509;28;20029;-75
2022/10/18 11:07:27;;;;;;;16.10;6.88;;;16.50;99.90;;;;;;5030703;28;20021;-75
2022/10/18 11:10:11;;;;;;;17.48;5.93;;;16.60;99.90;;;;;;5030245;28;20124;-75
2022/10/18 11:12:41;;;;;;;12.85;6.07;;;16.60;99.90;;;;;;5033818;28;20029;-74
2022/10/18 11:15:13;;;;;;;15.50;6.32;;;16.60;99.90;;;;;;5012483;28;20096;-75
2022/10/18 11:17:45;;;;;;;17.90;5.90;;;16.60;99.90;;;;;;5031981;28;20045;-75
2022/10/18 11:20:25;;;;;;;17.65;5.57;;;16.80;99.90;;;;;;5032772;28;20389;-74
2022/10/18 11:23:04;;;;;;;21.60;6.30;;;17.00;99.90;;;;;;5032904;28;20030;-74
2022/10/18 11:26:11;;;;;;;14.48;4.50;;;17.30;99.90;;;;;;5016917;28;20049;-76
2022/10/18 11:28:44;;;;;;;9.73;3.22;;;17.50;99.90;;;;;;5020886;28;20095;-80
2022/10/18 11:31:46;;;;;;;15.65;3.03;;;17.60;99.90;;;;;;5022757;28;20045;-76
2022/10/18 11:34:18;;;;;;;11.23;3.63;;;17.70;99.90;;;;;;5031022;28;20044;-76
2022/10/18 11:37:09;;;;;;;8.80;3.17;;;17.80;99.90;;;;;;5013506;28;20030;-77
2022/10/18 11:39:46;;;;;;;9.80;3.35;;;17.70;99.90;;;;;;5032911;28;20041;-75
2022/10/18 11:42:43;;;;;;;14.68;3.63;;;17.70;99.90;;;;;;5032787;28;20036;-77
2022/10/18 11:45:31;;;;;;;11.55;3.22;;;17.90;99.90;;;;;;5031030;28;20049;-77
2022/10/18 11:48:09;;;;;;;12.27;3.55;;;18.00;99.90;;;;;;4986060;28;20041;-76
2022/10/18 11:50:49;;;;;;;11.02;3.45;;;18.30;99.90;;;;;;5021989;28;20034;-75
2022/10/18 11:53:18;;;;;;;10.68;2.72;;;18.80;99.90;;;;;;5030175;28;20097;-75
2022/10/18 11:56:19;;;;;;;15.80;3.05;;;19.20;99.90;;;;;;5031467;28;20151;-76
2022/10/18 11:59:16;;;;;;;8.32;3.10;;;19.20;99.90;;;;;;5016599;28;20044;-77
2022/10/18 12:02:13;;;;;;;10.80;3.10;;;19.30;99.90;;;;;;5018318;28;20098;-76
2022/10/18 12:04:59;;;;;;;8.95;2.78;;;19.40;99.90;;;;;;5025682;28;20473;-77
2022/10/18 12:07:29;;;;;;;8.38;2.78;;;19.70;99.90;;;;;;5013223;28;20038;-74
2022/10/18 12:09:56;;;;;;;9.85;2.08;;;20.00;99.90;;;;;;5029342;28;20029;-78
2022/10/18 12:12:32;;;;;;;10.15;2.13;;;19.90;99.90;;;;;;5029370;28;20026;-74
2022/10/18 12:15:03;;;;;;;9.15;2.25;;;19.80;99.90;;;;;;5013818;28;20029;-78
2022/10/18 12:17:39;;;;;;;16.67;2.63;;;19.50;99.90;;;;;;5012718;28;20058;-75
2022/10/18 12:20:28;;;;;;;8.38;2.72;;;19.20;99.90;;;;;;5027954;28;20025;-76
2022/10/18 12:23:09;;;;;;;11.63;2.65;;;18.80;99.90;;;;;;5020459;28;20044;-76
2022/10/18 12:25:41;;;;;;;14.13;2.95;;;18.50;99.90;;;;;;5035305;28;20037;-79
2022/10/18 12:28:23;;;;;;;12.05;2.92;;;18.50;99.90;;;;;;5015892;28;20026;-77
2022/10/18 12:31:27;;;;;;;13.25;2.67;;;18.50;99.90;;;;;;5034839;28;20022;-79
2022/10/18 12:34:07;;;;;;;7.60;2.35;;;18.30;99.90;;;;;;5017798;28;20045;-77
2022/10/18 12:37:08;;;;;;;18.38;2.63;;;18.50;99.90;;;;;;5014702;28;20501;-78
2022/10/18 12:39:45;;;;;;;10.43;2.20;;;18.50;99.90;;;;;;5023197;28;20041;-76
2022/10/18 12:42:20;;;;;;;7.07;1.90;;;18.30;99.90;;;;;;5013912;28;20436;-79
2022/10/18 12:44:47;;;;;;;6.95;2.25;;;18.20;99.90;;;;;;5023054;28;20409;-74
2022/10/18 12:47:24;;;;;;;10.70;2.30;;;18.20;99.90;;;;;;5032091;28;20030;-74
2022/10/18 12:50:06;;;;;;;6.25;2.10;;;18.10;99.90;;;;;;5032425;28;20037;-74